Битола, Грција

02:13 PM EET на 22 Јануари, 2018 (GMT +0200)
IOANNIDIS | | Change Station

Elev 410 ft 40.98 °N, 22.05 °E | Updated 11 minutes ago

Умерено облачно
Умерено облачно
44.4 °F
Feels Like 37 °F
С
18.0
Ветер Променлив Ветер from СЗ
Gusts 36.0 mph

Денес
High -- | Low -- °F
--% Chance of Precip.
Вчера
High -- | Low -- °F
Precip. -- инчи
Притисок 29.71 инчи
Видливост 6.2 миљи
Облаци Few 7000 ft
Лични чувство за темп. со ветерот 37 °F
Точка на kондензација 28 °F
Влажност 52%
Дожд 0.02 инчи
Височина на снег Not available.
7:51 AM 5:36 PM
Првиот квартал, 26% visible
METAR LGKZ 221150Z 32023G33KT 9999 FEW070 04/M10 Q1006
Притисок 29.71 инчи
Видливост 6.2 миљи
Облаци Few 7000 ft
Лични чувство за темп. со ветерот 37 °F
Точка на kондензација 28 °F
Влажност 52%
Дожд 0.02 инчи
Височина на снег Not available.
7:51 AM 5:36 PM
Првиот квартал, 26% visible
METAR LGKZ 221150Z 32023G33KT 9999 FEW070 04/M10 Q1006

Get Severe Weather Alerts

Thanks for signing up!

Be on the lookout for a verification email in your inbox.

You'll start receiving the daily forecast at 6 AM.

×

10-Day Weather Forecast

×

Almanac

Астрономијата

Jan. 22, 2018 Изгревање Заоѓање
Актуелно време
Граѓанскиот самрак
Наутички самрак
Астрономски самрак
Месечината
Должина на видливата светлина
Должина на денот
Tomorrow will be .
, % of the Moon is Illuminated

Екстреми денес

Country Highs Country Lows

Community

WunderPhotos

Category 6

Welcome to Category 6. This is the collective home for Weather Underground's featured writeups by Dr. Jeff Masters (right), Bob Henson (left), Chris Burt, and other regular contributors.

Nearby

Квалитетот на воздухот

  Квалитетот на воздухот AQ индекс Загадувач
Not available.

Височина на снег

Station Depth Висина

Earthquake Activity

Град Distance Mag. Time & Date
Minimum magnitude displayed is 2.5.

Coastal Water Temperatures

Место Температура

Stations

Nearby Weather Stations

Локација на станицата Темп. Лични чувство за темп. со ветерот Точка на kондензација Влажност Ветер Precip. Elev Ажурирани Тип